sensor_id;sensor_type;location;lat;lon;timestamp;temperature;humidity
27026;DHT22;14565;48.626;8.978;2023-07-24T00:02:48;18.70;99.90
27026;DHT22;14565;48.626;8.978;2023-07-24T00:05:48;18.60;99.90
27026;DHT22;14565;48.626;8.978;2023-07-24T00:08:42;18.50;99.90
27026;DHT22;14565;48.626;8.978;2023-07-24T00:11:56;18.40;99.90
27026;DHT22;14565;48.626;8.978;2023-07-24T00:14:36;18.30;99.90
27026;DHT22;14565;48.626;8.978;2023-07-24T00:17:05;18.30;99.90
27026;DHT22;14565;48.626;8.978;2023-07-24T00:19:54;18.30;99.90
27026;DHT22;14565;48.626;8.978;2023-07-24T00:25:37;18.10;99.90
27026;DHT22;14565;48.626;8.978;2023-07-24T00:28:11;18.10;99.90
27026;DHT22;14565;48.626;8.978;2023-07-24T00:31:25;18.00;99.90
27026;DHT22;14565;48.626;8.978;2023-07-24T00:37:43;17.90;99.90
27026;DHT22;14565;48.626;8.978;2023-07-24T00:40:32;18.00;99.90
27026;DHT22;14565;48.626;8.978;2023-07-24T00:43:26;17.90;99.90
27026;DHT22;14565;48.626;8.978;2023-07-24T00:46:37;18.00;99.90
27026;DHT22;14565;48.626;8.978;2023-07-24T00:52:40;18.10;99.90
27026;DHT22;14565;48.626;8.978;2023-07-24T00:58:36;18.10;99.90
27026;DHT22;14565;48.626;8.978;2023-07-24T01:04:49;17.90;99.90
27026;DHT22;14565;48.626;8.978;2023-07-24T01:07:37;17.90;99.90
27026;DHT22;14565;48.626;8.978;2023-07-24T01:10:11;18.10;99.90
27026;DHT22;14565;48.626;8.978;2023-07-24T01:13:19;18.10;99.90
27026;DHT22;14565;48.626;8.978;2023-07-24T01:19:51;17.60;99.90
27026;DHT22;14565;48.626;8.978;2023-07-24T01:26:23;17.40;99.90
27026;DHT22;14565;48.626;8.978;2023-07-24T01:29:29;17.50;99.90
27026;DHT22;14565;48.626;8.978;2023-07-24T01:32:28;17.10;99.90
27026;DHT22;14565;48.626;8.978;2023-07-24T01:35:08;17.10;99.90
27026;DHT22;14565;48.626;8.978;2023-07-24T01:37:43;17.10;99.90
27026;DHT22;14565;48.626;8.978;2023-07-24T01:43:25;17.10;99.90
27026;DHT22;14565;48.626;8.978;2023-07-24T01:46:11;17.00;99.90
27026;DHT22;14565;48.626;8.978;2023-07-24T01:48:37;17.10;99.90
27026;DHT22;14565;48.626;8.978;2023-07-24T01:51:02;17.10;99.90
27026;DHT22;14565;48.626;8.978;2023-07-24T01:53:28;17.10;99.90
27026;DHT22;14565;48.626;8.978;2023-07-24T01:55:54;17.10;99.90
27026;DHT22;14565;48.626;8.978;2023-07-24T01:58:19;17.20;99.90
27026;DHT22;14565;48.626;8.978;2023-07-24T02:00:45;17.20;99.90
27026;DHT22;14565;48.626;8.978;2023-07-24T02:03:10;17.20;99.90
27026;DHT22;14565;48.626;8.978;2023-07-24T02:05:36;17.40;99.90
27026;DHT22;14565;48.626;8.978;2023-07-24T02:08:02;17.30;99.90
27026;DHT22;14565;48.626;8.978;2023-07-24T02:10:27;17.40;99.90
27026;DHT22;14565;48.626;8.978;2023-07-24T02:12:53;17.20;99.90
27026;DHT22;14565;48.626;8.978;2023-07-24T02:15:18;17.30;99.90
27026;DHT22;14565;48.626;8.978;2023-07-24T02:17:44;17.20;99.90
27026;DHT22;14565;48.626;8.978;2023-07-24T02:20:10;17.10;99.90
27026;DHT22;14565;48.626;8.978;2023-07-24T02:22:35;17.10;99.90
27026;DHT22;14565;48.626;8.978;2023-07-24T02:25:01;17.00;99.90
27026;DHT22;14565;48.626;8.978;2023-07-24T02:27:31;16.90;99.90
27026;DHT22;14565;48.626;8.978;2023-07-24T02:30:00;16.70;99.90
27026;DHT22;14565;48.626;8.978;2023-07-24T02:32:26;16.70;99.90
27026;DHT22;14565;48.626;8.978;2023-07-24T02:34:52;16.70;99.90
27026;DHT22;14565;48.626;8.978;2023-07-24T02:37:18;16.80;99.90
27026;DHT22;14565;48.626;8.978;2023-07-24T02:39:44;16.70;99.90
27026;DHT22;14565;48.626;8.978;2023-07-24T02:42:09;16.60;99.90
27026;DHT22;14565;48.626;8.978;2023-07-24T02:44:35;16.60;99.90
27026;DHT22;14565;48.626;8.978;2023-07-24T02:47:01;16.50;99.90
27026;DHT22;14565;48.626;8.978;2023-07-24T02:49:26;16.60;99.90
27026;DHT22;14565;48.626;8.978;2023-07-24T02:51:52;16.50;99.90
27026;DHT22;14565;48.626;8.978;2023-07-24T02:54:17;16.40;99.90
27026;DHT22;14565;48.626;8.978;2023-07-24T02:56:43;16.30;99.90
27026;DHT22;14565;48.626;8.978;2023-07-24T02:59:09;16.30;99.90
27026;DHT22;14565;48.626;8.978;2023-07-24T03:01:34;16.20;99.90
27026;DHT22;14565;48.626;8.978;2023-07-24T03:04:00;16.10;99.90
27026;DHT22;14565;48.626;8.978;2023-07-24T03:06:26;15.90;99.90
27026;DHT22;14565;48.626;8.978;2023-07-24T03:08:51;15.80;99.90
27026;DHT22;14565;48.626;8.978;2023-07-24T03:11:17;15.90;99.90
27026;DHT22;14565;48.626;8.978;2023-07-24T03:13:43;15.90;99.90
27026;DHT22;14565;48.626;8.978;2023-07-24T03:16:08;15.90;99.90
27026;DHT22;14565;48.626;8.978;2023-07-24T03:18:34;15.80;99.90
27026;DHT22;14565;48.626;8.978;2023-07-24T03:20:59;15.80;99.90
27026;DHT22;14565;48.626;8.978;2023-07-24T03:23:26;15.70;99.90
27026;DHT22;14565;48.626;8.978;2023-07-24T03:25:51;15.70;99.90
27026;DHT22;14565;48.626;8.978;2023-07-24T03:28:17;15.80;99.90
27026;DHT22;14565;48.626;8.978;2023-07-24T03:30:43;15.80;99.90
27026;DHT22;14565;48.626;8.978;2023-07-24T03:33:08;15.80;99.90
27026;DHT22;14565;48.626;8.978;2023-07-24T03:35:34;15.70;99.90
27026;DHT22;14565;48.626;8.978;2023-07-24T03:38:00;15.70;99.90
27026;DHT22;14565;48.626;8.978;2023-07-24T03:40:26;15.60;99.90
27026;DHT22;14565;48.626;8.978;2023-07-24T03:42:51;15.80;99.90
27026;DHT22;14565;48.626;8.978;2023-07-24T03:45:17;15.70;99.90
27026;DHT22;14565;48.626;8.978;2023-07-24T03:47:43;15.90;99.90
27026;DHT22;14565;48.626;8.978;2023-07-24T03:50:09;16.10;99.90
27026;DHT22;14565;48.626;8.978;2023-07-24T03:52:35;16.10;99.90
27026;DHT22;14565;48.626;8.978;2023-07-24T03:55:01;16.20;99.90
27026;DHT22;14565;48.626;8.978;2023-07-24T03:57:27;16.40;99.90
27026;DHT22;14565;48.626;8.978;2023-07-24T03:59:52;16.50;99.90
27026;DHT22;14565;48.626;8.978;2023-07-24T04:02:18;16.40;99.90
27026;DHT22;14565;48.626;8.978;2023-07-24T04:04:44;16.20;99.90
27026;DHT22;14565;48.626;8.978;2023-07-24T04:07:10;16.40;99.90
27026;DHT22;14565;48.626;8.978;2023-07-24T04:09:35;16.40;99.90
27026;DHT22;14565;48.626;8.978;2023-07-24T04:12:01;16.60;99.90
27026;DHT22;14565;48.626;8.978;2023-07-24T04:14:27;16.80;99.90
27026;DHT22;14565;48.626;8.978;2023-07-24T04:16:52;16.90;99.90
27026;DHT22;14565;48.626;8.978;2023-07-24T04:19:19;16.90;99.90
27026;DHT22;14565;48.626;8.978;2023-07-24T04:21:44;16.80;99.90
27026;DHT22;14565;48.626;8.978;2023-07-24T04:24:10;16.50;99.90
27026;DHT22;14565;48.626;8.978;2023-07-24T04:26:36;16.10;99.90
27026;DHT22;14565;48.626;8.978;2023-07-24T04:29:01;16.10;99.90
27026;DHT22;14565;48.626;8.978;2023-07-24T04:31:27;16.10;99.90
27026;DHT22;14565;48.626;8.978;2023-07-24T04:33:52;16.30;99.90
27026;DHT22;14565;48.626;8.978;2023-07-24T04:36:18;16.50;99.90
27026;DHT22;14565;48.626;8.978;2023-07-24T04:38:44;16.50;99.90
27026;DHT22;14565;48.626;8.978;2023-07-24T04:41:11;16.50;99.90
27026;DHT22;14565;48.626;8.978;2023-07-24T04:43:37;16.60;99.90
27026;DHT22;14565;48.626;8.978;2023-07-24T04:46:02;16.60;99.90
27026;DHT22;14565;48.626;8.978;2023-07-24T04:48:29;16.60;99.90
27026;DHT22;14565;48.626;8.978;2023-07-24T04:50:55;16.60;99.90
27026;DHT22;14565;48.626;8.978;2023-07-24T04:53:22;16.50;99.90
27026;DHT22;14565;48.626;8.978;2023-07-24T04:55:47;16.60;99.90
27026;DHT22;14565;48.626;8.978;2023-07-24T04:58:13;16.70;99.90
27026;DHT22;14565;48.626;8.978;2023-07-24T05:00:39;16.80;99.90
27026;DHT22;14565;48.626;8.978;2023-07-24T05:03:05;16.70;99.90
27026;DHT22;14565;48.626;8.978;2023-07-24T05:05:31;16.90;99.90
27026;DHT22;14565;48.626;8.978;2023-07-24T05:07:57;17.10;99.90
27026;DHT22;14565;48.626;8.978;2023-07-24T05:10:23;17.10;99.90
27026;DHT22;14565;48.626;8.978;2023-07-24T05:12:48;17.10;99.90
27026;DHT22;14565;48.626;8.978;2023-07-24T05:15:14;17.10;99.90
27026;DHT22;14565;48.626;8.978;2023-07-24T05:17:43;17.30;99.90
27026;DHT22;14565;48.626;8.978;2023-07-24T05:20:09;17.30;99.90
27026;DHT22;14565;48.626;8.978;2023-07-24T05:22:35;17.40;99.90
27026;DHT22;14565;48.626;8.978;2023-07-24T05:25:00;17.50;99.90
27026;DHT22;14565;48.626;8.978;2023-07-24T05:27:26;17.60;99.90
27026;DHT22;14565;48.626;8.978;2023-07-24T05:29:52;17.80;99.90
27026;DHT22;14565;48.626;8.978;2023-07-24T05:32:18;18.00;99.90
27026;DHT22;14565;48.626;8.978;2023-07-24T05:34:43;18.10;99.90
27026;DHT22;14565;48.626;8.978;2023-07-24T05:37:09;18.20;99.90
27026;DHT22;14565;48.626;8.978;2023-07-24T05:39:35;18.10;99.90
27026;DHT22;14565;48.626;8.978;2023-07-24T05:42:01;18.20;99.90
27026;DHT22;14565;48.626;8.978;2023-07-24T05:44:27;18.10;99.90
27026;DHT22;14565;48.626;8.978;2023-07-24T05:46:53;18.20;99.90
27026;DHT22;14565;48.626;8.978;2023-07-24T05:49:19;18.20;99.90
27026;DHT22;14565;48.626;8.978;2023-07-24T05:51:44;18.20;99.90
27026;DHT22;14565;48.626;8.978;2023-07-24T05:54:10;18.10;99.90
27026;DHT22;14565;48.626;8.978;2023-07-24T05:56:35;18.20;99.90
27026;DHT22;14565;48.626;8.978;2023-07-24T05:59:01;18.00;99.90
27026;DHT22;14565;48.626;8.978;2023-07-24T06:01:26;18.00;99.90
27026;DHT22;14565;48.626;8.978;2023-07-24T06:03:52;18.10;99.90
27026;DHT22;14565;48.626;8.978;2023-07-24T06:06:18;18.10;99.90
27026;DHT22;14565;48.626;8.978;2023-07-24T06:08:44;18.10;99.90
27026;DHT22;14565;48.626;8.978;2023-07-24T06:11:10;18.10;99.90
27026;DHT22;14565;48.626;8.978;2023-07-24T06:13:36;18.20;99.90
27026;DHT22;14565;48.626;8.978;2023-07-24T06:16:01;18.30;99.90
27026;DHT22;14565;48.626;8.978;2023-07-24T06:18:27;18.40;99.90
27026;DHT22;14565;48.626;8.978;2023-07-24T06:20:53;18.40;99.90
27026;DHT22;14565;48.626;8.978;2023-07-24T06:23:19;18.40;99.90
27026;DHT22;14565;48.626;8.978;2023-07-24T06:25:45;18.50;99.90
27026;DHT22;14565;48.626;8.978;2023-07-24T06:28:11;18.60;99.90
27026;DHT22;14565;48.626;8.978;2023-07-24T06:30:38;18.60;99.90
27026;DHT22;14565;48.626;8.978;2023-07-24T06:33:04;18.80;99.90
27026;DHT22;14565;48.626;8.978;2023-07-24T06:35:30;18.90;99.90
27026;DHT22;14565;48.626;8.978;2023-07-24T06:37:55;18.90;99.90
27026;DHT22;14565;48.626;8.978;2023-07-24T06:40:21;18.90;99.90
27026;DHT22;14565;48.626;8.978;2023-07-24T06:42:47;19.00;99.90
27026;DHT22;14565;48.626;8.978;2023-07-24T06:45:13;19.20;99.90
27026;DHT22;14565;48.626;8.978;2023-07-24T06:47:38;19.40;99.90
27026;DHT22;14565;48.626;8.978;2023-07-24T06:50:04;19.50;99.90
27026;DHT22;14565;48.626;8.978;2023-07-24T06:52:32;19.80;99.90
27026;DHT22;14565;48.626;8.978;2023-07-24T06:54:58;19.90;99.90
27026;DHT22;14565;48.626;8.978;2023-07-24T06:57:24;20.00;99.90
27026;DHT22;14565;48.626;8.978;2023-07-24T06:59:49;20.20;99.90
27026;DHT22;14565;48.626;8.978;2023-07-24T07:02:15;20.20;99.90
27026;DHT22;14565;48.626;8.978;2023-07-24T07:04:41;20.30;99.90
27026;DHT22;14565;48.626;8.978;2023-07-24T07:07:07;20.50;99.90
27026;DHT22;14565;48.626;8.978;2023-07-24T07:09:32;20.30;99.90
27026;DHT22;14565;48.626;8.978;2023-07-24T07:11:58;20.30;99.90
27026;DHT22;14565;48.626;8.978;2023-07-24T07:14:24;20.50;99.90
27026;DHT22;14565;48.626;8.978;2023-07-24T07:16:49;20.50;99.90
27026;DHT22;14565;48.626;8.978;2023-07-24T07:19:15;20.50;99.90
27026;DHT22;14565;48.626;8.978;2023-07-24T07:21:40;20.60;99.90
27026;DHT22;14565;48.626;8.978;2023-07-24T07:24:06;20.50;99.90
27026;DHT22;14565;48.626;8.978;2023-07-24T07:26:32;20.40;99.90
27026;DHT22;14565;48.626;8.978;2023-07-24T07:28:58;20.30;99.90
27026;DHT22;14565;48.626;8.978;2023-07-24T07:31:24;20.30;99.90
27026;DHT22;14565;48.626;8.978;2023-07-24T07:33:50;20.30;99.90
27026;DHT22;14565;48.626;8.978;2023-07-24T07:36:16;20.30;99.90
27026;DHT22;14565;48.626;8.978;2023-07-24T07:38:43;20.30;99.90
27026;DHT22;14565;48.626;8.978;2023-07-24T07:41:08;20.50;99.90
27026;DHT22;14565;48.626;8.978;2023-07-24T07:43:34;20.70;99.90
27026;DHT22;14565;48.626;8.978;2023-07-24T07:46:02;20.70;99.90
27026;DHT22;14565;48.626;8.978;2023-07-24T07:48:27;20.60;99.90
27026;DHT22;14565;48.626;8.978;2023-07-24T07:50:53;20.70;99.90
27026;DHT22;14565;48.626;8.978;2023-07-24T07:53:19;20.50;99.90
27026;DHT22;14565;48.626;8.978;2023-07-24T07:55:45;20.20;99.90
27026;DHT22;14565;48.626;8.978;2023-07-24T07:58:13;20.10;99.90
27026;DHT22;14565;48.626;8.978;2023-07-24T08:00:38;20.00;99.90
27026;DHT22;14565;48.626;8.978;2023-07-24T08:03:05;19.90;99.90
27026;DHT22;14565;48.626;8.978;2023-07-24T08:05:30;19.80;99.90
27026;DHT22;14565;48.626;8.978;2023-07-24T08:07:57;19.60;99.90
27026;DHT22;14565;48.626;8.978;2023-07-24T08:10:23;19.30;99.90
27026;DHT22;14565;48.626;8.978;2023-07-24T08:12:49;19.20;99.90
27026;DHT22;14565;48.626;8.978;2023-07-24T08:15:14;19.00;99.90
27026;DHT22;14565;48.626;8.978;2023-07-24T08:17:40;18.90;99.90
27026;DHT22;14565;48.626;8.978;2023-07-24T08:20:07;18.80;99.90
27026;DHT22;14565;48.626;8.978;2023-07-24T08:22:33;18.60;99.90
27026;DHT22;14565;48.626;8.978;2023-07-24T08:24:59;18.50;99.90
27026;DHT22;14565;48.626;8.978;2023-07-24T08:27:24;18.60;99.90
27026;DHT22;14565;48.626;8.978;2023-07-24T08:29:51;18.70;99.90
27026;DHT22;14565;48.626;8.978;2023-07-24T08:32:18;18.70;99.90
27026;DHT22;14565;48.626;8.978;2023-07-24T08:34:44;18.70;99.90
27026;DHT22;14565;48.626;8.978;2023-07-24T08:37:11;18.60;99.90
27026;DHT22;14565;48.626;8.978;2023-07-24T08:39:37;18.60;99.90
27026;DHT22;14565;48.626;8.978;2023-07-24T08:42:11;18.70;99.90
27026;DHT22;14565;48.626;8.978;2023-07-24T08:44:37;18.60;99.90
27026;DHT22;14565;48.626;8.978;2023-07-24T08:47:03;18.60;99.90
27026;DHT22;14565;48.626;8.978;2023-07-24T08:49:30;18.60;99.90
27026;DHT22;14565;48.626;8.978;2023-07-24T08:51:57;18.70;99.90
27026;DHT22;14565;48.626;8.978;2023-07-24T08:54:23;18.70;99.90
27026;DHT22;14565;48.626;8.978;2023-07-24T08:56:50;18.90;99.90
27026;DHT22;14565;48.626;8.978;2023-07-24T08:59:17;18.90;99.90
27026;DHT22;14565;48.626;8.978;2023-07-24T09:01:43;19.00;99.90
27026;DHT22;14565;48.626;8.978;2023-07-24T09:04:09;19.10;99.90
27026;DHT22;14565;48.626;8.978;2023-07-24T09:06:36;19.20;99.90
27026;DHT22;14565;48.626;8.978;2023-07-24T09:09:02;19.40;99.90
27026;DHT22;14565;48.626;8.978;2023-07-24T09:11:28;19.60;99.90
27026;DHT22;14565;48.626;8.978;2023-07-24T09:13:54;19.90;99.90
27026;DHT22;14565;48.626;8.978;2023-07-24T09:16:24;20.20;99.90
27026;DHT22;14565;48.626;8.978;2023-07-24T09:18:51;20.20;99.90
27026;DHT22;14565;48.626;8.978;2023-07-24T09:21:29;20.50;99.90
27026;DHT22;14565;48.626;8.978;2023-07-24T09:23:55;20.50;99.90
27026;DHT22;14565;48.626;8.978;2023-07-24T09:26:21;20.50;99.90
27026;DHT22;14565;48.626;8.978;2023-07-24T09:28:54;20.30;99.90
27026;DHT22;14565;48.626;8.978;2023-07-24T09:31:19;20.20;99.90
27026;DHT22;14565;48.626;8.978;2023-07-24T09:33:45;20.20;99.90
27026;DHT22;14565;48.626;8.978;2023-07-24T09:36:12;20.20;99.90
27026;DHT22;14565;48.626;8.978;2023-07-24T09:38:39;20.00;99.90
27026;DHT22;14565;48.626;8.978;2023-07-24T09:41:06;20.20;99.90
27026;DHT22;14565;48.626;8.978;2023-07-24T09:43:33;20.30;99.90
27026;DHT22;14565;48.626;8.978;2023-07-24T09:46:01;20.40;99.90
27026;DHT22;14565;48.626;8.978;2023-07-24T09:48:29;20.20;99.90
27026;DHT22;14565;48.626;8.978;2023-07-24T09:50:59;20.40;99.90
27026;DHT22;14565;48.626;8.978;2023-07-24T10:16:00;19.70;99.90
27026;DHT22;14565;48.626;8.978;2023-07-24T10:18:29;19.60;99.90
27026;DHT22;14565;48.626;8.978;2023-07-24T10:21:06;19.40;99.90
27026;DHT22;14565;48.626;8.978;2023-07-24T10:23:43;19.40;99.90
27026;DHT22;14565;48.626;8.978;2023-07-24T10:26:10;19.30;99.90
27026;DHT22;14565;48.626;8.978;2023-07-24T10:28:38;19.10;99.90
27026;DHT22;14565;48.626;8.978;2023-07-24T10:31:06;18.90;99.90
27026;DHT22;14565;48.626;8.978;2023-07-24T10:33:35;18.80;99.90
27026;DHT22;14565;48.626;8.978;2023-07-24T10:36:09;18.80;99.90
27026;DHT22;14565;48.626;8.978;2023-07-24T10:38:41;18.60;99.90
27026;DHT22;14565;48.626;8.978;2023-07-24T10:41:08;18.60;99.90
27026;DHT22;14565;48.626;8.978;2023-07-24T10:43:41;18.60;99.90
27026;DHT22;14565;48.626;8.978;2023-07-24T10:46:08;18.60;99.90
27026;DHT22;14565;48.626;8.978;2023-07-24T10:48:34;18.50;99.90
27026;DHT22;14565;48.626;8.978;2023-07-24T10:51:06;18.40;99.90
27026;DHT22;14565;48.626;8.978;2023-07-24T10:53:35;18.40;99.90
27026;DHT22;14565;48.626;8.978;2023-07-24T10:56:02;18.10;99.90
27026;DHT22;14565;48.626;8.978;2023-07-24T10:58:27;18.00;99.90
27026;DHT22;14565;48.626;8.978;2023-07-24T11:00:53;18.00;99.90
27026;DHT22;14565;48.626;8.978;2023-07-24T11:03:21;18.00;99.90
27026;DHT22;14565;48.626;8.978;2023-07-24T11:05:47;17.90;99.90
27026;DHT22;14565;48.626;8.978;2023-07-24T11:08:15;17.90;99.90
27026;DHT22;14565;48.626;8.978;2023-07-24T11:13:17;17.80;99.90
27026;DHT22;14565;48.626;8.978;2023-07-24T11:15:44;17.70;99.90
27026;DHT22;14565;48.626;8.978;2023-07-24T11:18:11;17.60;99.90
27026;DHT22;14565;48.626;8.978;2023-07-24T11:20:38;17.50;99.90
27026;DHT22;14565;48.626;8.978;2023-07-24T11:23:04;17.70;99.90
27026;DHT22;14565;48.626;8.978;2023-07-24T11:25:30;17.70;99.90
27026;DHT22;14565;48.626;8.978;2023-07-24T11:27:56;17.70;99.90
27026;DHT22;14565;48.626;8.978;2023-07-24T11:30:22;17.70;99.90
27026;DHT22;14565;48.626;8.978;2023-07-24T11:32:48;17.90;99.90
27026;DHT22;14565;48.626;8.978;2023-07-24T11:35:14;18.40;99.90
27026;DHT22;14565;48.626;8.978;2023-07-24T11:37:40;18.60;99.90
27026;DHT22;14565;48.626;8.978;2023-07-24T11:40:07;18.70;99.90
27026;DHT22;14565;48.626;8.978;2023-07-24T11:42:40;18.70;99.90
27026;DHT22;14565;48.626;8.978;2023-07-24T11:45:08;19.00;99.90
27026;DHT22;14565;48.626;8.978;2023-07-24T11:47:47;19.30;99.90
27026;DHT22;14565;48.626;8.978;2023-07-24T11:50:14;19.20;99.90
27026;DHT22;14565;48.626;8.978;2023-07-24T11:52:46;19.10;99.90
27026;DHT22;14565;48.626;8.978;2023-07-24T11:55:17;19.00;99.90
27026;DHT22;14565;48.626;8.978;2023-07-24T11:57:43;19.20;99.90
27026;DHT22;14565;48.626;8.978;2023-07-24T12:00:22;19.50;99.90
27026;DHT22;14565;48.626;8.978;2023-07-24T12:02:48;19.80;99.90
27026;DHT22;14565;48.626;8.978;2023-07-24T12:05:15;20.20;99.90
27026;DHT22;14565;48.626;8.978;2023-07-24T12:07:42;20.20;99.90
27026;DHT22;14565;48.626;8.978;2023-07-24T12:10:09;20.70;99.90
27026;DHT22;14565;48.626;8.978;2023-07-24T12:15:04;20.70;99.90
27026;DHT22;14565;48.626;8.978;2023-07-24T12:17:29;20.90;99.90
27026;DHT22;14565;48.626;8.978;2023-07-24T12:19:55;20.90;99.90
27026;DHT22;14565;48.626;8.978;2023-07-24T12:22:22;21.20;99.90
27026;DHT22;14565;48.626;8.978;2023-07-24T12:24:48;21.30;99.90
27026;DHT22;14565;48.626;8.978;2023-07-24T12:27:13;21.10;99.90
27026;DHT22;14565;48.626;8.978;2023-07-24T12:29:39;21.20;99.90
27026;DHT22;14565;48.626;8.978;2023-07-24T12:32:05;21.00;99.90
27026;DHT22;14565;48.626;8.978;2023-07-24T12:34:31;21.00;99.90
27026;DHT22;14565;48.626;8.978;2023-07-24T12:36:57;20.80;99.90
27026;DHT22;14565;48.626;8.978;2023-07-24T12:39:22;20.70;99.90
27026;DHT22;14565;48.626;8.978;2023-07-24T12:41:48;21.20;99.90
27026;DHT22;14565;48.626;8.978;2023-07-24T12:44:14;21.70;99.90
27026;DHT22;14565;48.626;8.978;2023-07-24T12:46:39;22.10;99.90
27026;DHT22;14565;48.626;8.978;2023-07-24T12:49:05;21.90;99.90
27026;DHT22;14565;48.626;8.978;2023-07-24T12:51:31;21.70;99.90
27026;DHT22;14565;48.626;8.978;2023-07-24T12:53:56;21.80;99.90
27026;DHT22;14565;48.626;8.978;2023-07-24T12:56:22;21.60;99.90
27026;DHT22;14565;48.626;8.978;2023-07-24T12:58:48;22.10;99.90
27026;DHT22;14565;48.626;8.978;2023-07-24T13:01:13;22.20;99.90
27026;DHT22;14565;48.626;8.978;2023-07-24T13:03:40;22.30;99.90
27026;DHT22;14565;48.626;8.978;2023-07-24T13:06:05;22.70;99.90
27026;DHT22;14565;48.626;8.978;2023-07-24T13:08:31;22.50;99.90
27026;DHT22;14565;48.626;8.978;2023-07-24T13:10:57;22.60;99.90
27026;DHT22;14565;48.626;8.978;2023-07-24T13:13:22;22.80;99.90
27026;DHT22;14565;48.626;8.978;2023-07-24T13:15:48;22.80;99.90
27026;DHT22;14565;48.626;8.978;2023-07-24T13:18:16;22.80;99.90
27026;DHT22;14565;48.626;8.978;2023-07-24T13:20:42;22.70;99.90
27026;DHT22;14565;48.626;8.978;2023-07-24T13:23:08;22.70;99.90
27026;DHT22;14565;48.626;8.978;2023-07-24T13:25:34;22.30;99.90
27026;DHT22;14565;48.626;8.978;2023-07-24T13:28:00;22.00;99.90
27026;DHT22;14565;48.626;8.978;2023-07-24T13:30:26;21.90;99.90
27026;DHT22;14565;48.626;8.978;2023-07-24T13:32:51;21.80;99.90
27026;DHT22;14565;48.626;8.978;2023-07-24T13:35:18;22.10;99.90
27026;DHT22;14565;48.626;8.978;2023-07-24T13:37:44;22.20;99.90
27026;DHT22;14565;48.626;8.978;2023-07-24T13:40:10;22.20;99.90
27026;DHT22;14565;48.626;8.978;2023-07-24T13:42:36;22.40;99.90
27026;DHT22;14565;48.626;8.978;2023-07-24T13:45:02;22.20;99.90
27026;DHT22;14565;48.626;8.978;2023-07-24T13:47:28;22.00;99.90
27026;DHT22;14565;48.626;8.978;2023-07-24T13:49:54;21.80;99.90
27026;DHT22;14565;48.626;8.978;2023-07-24T13:52:19;22.00;99.90
27026;DHT22;14565;48.626;8.978;2023-07-24T13:54:45;21.90;99.90
27026;DHT22;14565;48.626;8.978;2023-07-24T13:57:13;22.10;99.90
27026;DHT22;14565;48.626;8.978;2023-07-24T13:59:38;22.10;99.90
27026;DHT22;14565;48.626;8.978;2023-07-24T14:02:05;22.40;99.90
27026;DHT22;14565;48.626;8.978;2023-07-24T14:04:31;22.50;99.90
27026;DHT22;14565;48.626;8.978;2023-07-24T14:06:57;22.80;99.90
27026;DHT22;14565;48.626;8.978;2023-07-24T14:09:22;22.70;99.90
27026;DHT22;14565;48.626;8.978;2023-07-24T14:11:48;22.60;99.90
27026;DHT22;14565;48.626;8.978;2023-07-24T14:14:15;22.70;99.90
27026;DHT22;14565;48.626;8.978;2023-07-24T14:16:40;22.80;99.90
27026;DHT22;14565;48.626;8.978;2023-07-24T14:19:06;22.70;99.90
27026;DHT22;14565;48.626;8.978;2023-07-24T14:21:32;22.40;99.90
27026;DHT22;14565;48.626;8.978;2023-07-24T14:23:57;22.30;99.90
27026;DHT22;14565;48.626;8.978;2023-07-24T14:26:23;22.20;99.90
27026;DHT22;14565;48.626;8.978;2023-07-24T14:28:48;22.40;99.90
27026;DHT22;14565;48.626;8.978;2023-07-24T14:31:14;22.30;99.90
27026;DHT22;14565;48.626;8.978;2023-07-24T14:33:40;22.30;99.90
27026;DHT22;14565;48.626;8.978;2023-07-24T14:36:05;22.90;99.90
27026;DHT22;14565;48.626;8.978;2023-07-24T14:38:31;23.00;99.90
27026;DHT22;14565;48.626;8.978;2023-07-24T14:40:56;23.10;99.90
27026;DHT22;14565;48.626;8.978;2023-07-24T14:43:22;22.90;99.90
27026;DHT22;14565;48.626;8.978;2023-07-24T14:45:48;22.60;99.90
27026;DHT22;14565;48.626;8.978;2023-07-24T14:48:13;23.00;99.90
27026;DHT22;14565;48.626;8.978;2023-07-24T14:50:40;23.20;99.90
27026;DHT22;14565;48.626;8.978;2023-07-24T14:53:05;22.70;99.90
27026;DHT22;14565;48.626;8.978;2023-07-24T14:55:31;22.60;99.90
27026;DHT22;14565;48.626;8.978;2023-07-24T14:57:57;22.80;99.90
27026;DHT22;14565;48.626;8.978;2023-07-24T15:00:22;22.70;99.90
27026;DHT22;14565;48.626;8.978;2023-07-24T15:02:48;22.90;99.90
27026;DHT22;14565;48.626;8.978;2023-07-24T15:05:13;22.90;99.90
27026;DHT22;14565;48.626;8.978;2023-07-24T15:07:39;22.50;99.90
27026;DHT22;14565;48.626;8.978;2023-07-24T15:10:05;22.30;99.90
27026;DHT22;14565;48.626;8.978;2023-07-24T15:12:31;22.30;99.90
27026;DHT22;14565;48.626;8.978;2023-07-24T15:14:57;22.10;99.90
27026;DHT22;14565;48.626;8.978;2023-07-24T15:17:22;22.20;99.90
27026;DHT22;14565;48.626;8.978;2023-07-24T15:19:48;22.10;99.90
27026;DHT22;14565;48.626;8.978;2023-07-24T15:22:13;21.90;99.90
27026;DHT22;14565;48.626;8.978;2023-07-24T15:24:40;21.90;99.90
27026;DHT22;14565;48.626;8.978;2023-07-24T15:27:06;22.00;99.90
27026;DHT22;14565;48.626;8.978;2023-07-24T15:29:37;21.90;99.90
27026;DHT22;14565;48.626;8.978;2023-07-24T15:32:03;21.70;99.90
27026;DHT22;14565;48.626;8.978;2023-07-24T15:34:29;21.30;99.90
27026;DHT22;14565;48.626;8.978;2023-07-24T15:36:54;21.20;99.90
27026;DHT22;14565;48.626;8.978;2023-07-24T15:39:20;21.10;99.90
27026;DHT22;14565;48.626;8.978;2023-07-24T15:41:46;21.40;99.90
27026;DHT22;14565;48.626;8.978;2023-07-24T15:44:11;21.30;99.90
27026;DHT22;14565;48.626;8.978;2023-07-24T15:46:37;21.40;99.90
27026;DHT22;14565;48.626;8.978;2023-07-24T15:49:03;21.20;99.90
27026;DHT22;14565;48.626;8.978;2023-07-24T15:51:29;21.20;99.90
27026;DHT22;14565;48.626;8.978;2023-07-24T15:53:57;21.30;99.90
27026;DHT22;14565;48.626;8.978;2023-07-24T15:56:22;21.40;99.90
27026;DHT22;14565;48.626;8.978;2023-07-24T15:58:50;21.40;99.90
27026;DHT22;14565;48.626;8.978;2023-07-24T16:01:16;21.40;99.90
27026;DHT22;14565;48.626;8.978;2023-07-24T16:03:42;21.70;99.90
27026;DHT22;14565;48.626;8.978;2023-07-24T16:06:11;21.80;99.90
27026;DHT22;14565;48.626;8.978;2023-07-24T16:08:37;21.60;99.90
27026;DHT22;14565;48.626;8.978;2023-07-24T16:11:03;21.40;99.90
27026;DHT22;14565;48.626;8.978;2023-07-24T16:13:35;21.50;99.90
27026;DHT22;14565;48.626;8.978;2023-07-24T16:16:01;21.10;99.90
27026;DHT22;14565;48.626;8.978;2023-07-24T16:18:28;21.30;99.90
27026;DHT22;14565;48.626;8.978;2023-07-24T16:20:53;21.10;99.90
27026;DHT22;14565;48.626;8.978;2023-07-24T16:23:19;21.00;99.90
27026;DHT22;14565;48.626;8.978;2023-07-24T16:25:45;20.90;99.90
27026;DHT22;14565;48.626;8.978;2023-07-24T16:28:10;21.00;99.90
27026;DHT22;14565;48.626;8.978;2023-07-24T16:30:36;20.90;99.90